Time;durP1;ratioP1;P1;durP2;ratioP2;P2;SDS_P1;SDS_P2;PMS_P1;PMS_P2;Temp;Humidity;BMP_temperature;BMP_pressure;BME280_temperature;BME280_humidity;BME280_pressure;Samples;Min_cycle;Max_cycle;Signal;HPM_P1;HPM_P2
2021/03/03 00:01:30;;;;;;;38.53;18.00;;;5.30;10.90;;;;;;4900711;29;20052;-72
2021/03/03 00:03:58;;;;;;;32.35;16.73;;;5.40;9.90;;;;;;4902457;29;20064;-72
2021/03/03 00:06:24;;;;;;;34.80;17.75;;;5.20;9.40;;;;;;4897764;29;20068;-71
2021/03/03 00:08:51;;;;;;;40.38;19.50;;;5.00;10.80;;;;;;4895722;29;20053;-73
2021/03/03 00:11:18;;;;;;;31.00;17.50;;;4.90;11.80;;;;;;4898222;29;20052;-73
2021/03/03 00:13:45;;;;;;;37.03;18.75;;;4.90;12.30;;;;;;4904757;29;20062;-72
2021/03/03 00:16:13;;;;;;;36.65;18.75;;;4.90;12.20;;;;;;4904229;29;20507;-73
2021/03/03 00:18:40;;;;;;;35.95;18.20;;;5.00;11.90;;;;;;4892245;29;20076;-73
2021/03/03 00:21:07;;;;;;;38.53;19.25;;;5.00;11.90;;;;;;4897320;29;20053;-74
2021/03/03 00:23:33;;;;;;;39.65;19.05;;;5.10;11.50;;;;;;4906174;29;20056;-72
2021/03/03 00:26:01;;;;;;;41.75;18.23;;;5.10;10.90;;;;;;4904709;29;20048;-74
2021/03/03 00:28:28;;;;;;;30.95;17.90;;;5.00;10.80;;;;;;4900818;29;20048;-73
2021/03/03 00:30:54;;;;;;;38.05;20.30;;;4.90;11.50;;;;;;4906710;29;20728;-70
2021/03/03 00:33:22;;;;;;;37.13;19.02;;;4.70;12.60;;;;;;4905411;29;20490;-73
2021/03/03 00:35:49;;;;;;;38.75;19.80;;;4.70;12.70;;;;;;4910630;29;20079;-74
2021/03/03 00:38:16;;;;;;;39.08;18.40;;;4.70;13.00;;;;;;4901267;29;20069;-72
2021/03/03 00:40:43;;;;;;;42.90;20.10;;;4.70;13.00;;;;;;4910229;29;20411;-72
2021/03/03 00:43:10;;;;;;;33.45;19.13;;;4.60;13.40;;;;;;4909317;29;20059;-73
2021/03/03 00:45:38;;;;;;;37.17;19.80;;;4.50;14.00;;;;;;4907959;29;20059;-73
2021/03/03 00:48:05;;;;;;;39.03;20.02;;;4.40;14.40;;;;;;4901232;29;20417;-73
2021/03/03 00:50:33;;;;;;;34.65;19.40;;;4.60;14.60;;;;;;4905256;29;20417;-73
2021/03/03 00:53:00;;;;;;;34.28;18.58;;;4.50;14.70;;;;;;4905902;29;20053;-73
2021/03/03 00:55:27;;;;;;;35.03;19.35;;;4.50;15.00;;;;;;4907689;29;20419;-72
2021/03/03 00:57:54;;;;;;;35.30;20.00;;;4.30;15.00;;;;;;4900314;29;20052;-74
2021/03/03 01:00:34;;;;;;;36.13;19.48;;;4.40;16.10;;;;;;4905259;29;20163;-71
2021/03/03 01:03:01;;;;;;;39.80;20.33;;;4.30;15.70;;;;;;4904023;29;20055;-71
2021/03/03 01:05:28;;;;;;;37.40;19.05;;;4.20;16.00;;;;;;4902798;29;20136;-72
2021/03/03 01:07:56;;;;;;;37.13;19.73;;;4.30;15.70;;;;;;4898033;29;20064;-72
2021/03/03 01:10:23;;;;;;;42.78;21.10;;;4.30;16.60;;;;;;4907063;29;20502;-72
2021/03/03 01:12:50;;;;;;;37.00;20.58;;;4.40;15.90;;;;;;4904408;29;20052;-72
2021/03/03 01:15:17;;;;;;;37.03;20.60;;;4.40;15.80;;;;;;4903070;29;20055;-72
2021/03/03 01:17:44;;;;;;;35.33;19.63;;;4.30;15.70;;;;;;4899129;29;20048;-72
2021/03/03 01:20:12;;;;;;;40.08;19.90;;;4.30;15.70;;;;;;4903656;29;20048;-71
2021/03/03 01:22:39;;;;;;;42.08;20.98;;;4.20;15.70;;;;;;4903017;29;20048;-71
2021/03/03 01:25:08;;;;;;;38.95;19.52;;;4.10;15.60;;;;;;4903646;29;20056;-71
2021/03/03 01:27:35;;;;;;;41.13;20.55;;;4.20;15.60;;;;;;4896233;29;20048;-71
2021/03/03 01:30:03;;;;;;;37.65;20.63;;;4.10;16.60;;;;;;4903097;29;20060;-72
2021/03/03 01:32:29;;;;;;;36.58;20.25;;;4.00;16.20;;;;;;4899753;29;20071;-72
2021/03/03 01:34:56;;;;;;;40.47;21.15;;;4.10;16.30;;;;;;4906622;29;20060;-71
2021/03/03 01:37:23;;;;;;;38.17;21.02;;;4.00;16.60;;;;;;4895943;29;20552;-73
2021/03/03 01:39:50;;;;;;;40.60;20.35;;;4.10;17.10;;;;;;4900943;29;20048;-73
2021/03/03 01:42:18;;;;;;;37.90;20.35;;;4.30;15.70;;;;;;4902979;29;20883;-73
2021/03/03 01:44:45;;;;;;;39.50;20.90;;;4.20;15.60;;;;;;4900551;29;20057;-72
2021/03/03 01:47:12;;;;;;;38.88;20.83;;;4.20;15.60;;;;;;4900644;29;21665;-72
2021/03/03 01:49:39;;;;;;;37.03;20.85;;;4.30;15.70;;;;;;4899808;29;20056;-73
2021/03/03 01:52:07;;;;;;;39.22;20.25;;;4.10;15.50;;;;;;4904930;29;20058;-71
2021/03/03 01:54:34;;;;;;;36.50;20.23;;;4.20;15.60;;;;;;4906644;29;20696;-72
2021/03/03 01:57:02;;;;;;;35.72;19.10;;;4.30;15.60;;;;;;4903974;29;20060;-71
2021/03/03 01:59:30;;;;;;;35.03;19.83;;;4.40;14.30;;;;;;4905799;29;20096;-72
2021/03/03 02:01:57;;;;;;;36.80;20.10;;;4.30;14.30;;;;;;4904844;29;20131;-72
2021/03/03 02:04:24;;;;;;;38.92;19.65;;;4.30;14.60;;;;;;4907099;29;20052;-72
2021/03/03 02:06:59;;;;;;;39.42;20.20;;;4.40;14.30;;;;;;4903491;29;20055;-72
2021/03/03 02:09:36;;;;;;;32.78;18.20;;;4.40;13.40;;;;;;4898575;29;20045;-73
2021/03/03 02:12:09;;;;;;;33.92;17.88;;;4.60;12.30;;;;;;4901114;29;20044;-71
2021/03/03 02:14:40;;;;;;;34.42;18.50;;;4.60;11.50;;;;;;4901902;29;20053;-73
2021/03/03 02:17:07;;;;;;;38.35;19.50;;;4.60;11.20;;;;;;4898538;29;20052;-72
2021/03/03 02:19:38;;;;;;;38.83;18.23;;;4.60;11.10;;;;;;4902334;29;20047;-72
2021/03/03 02:22:11;;;;;;;31.73;17.50;;;4.60;10.90;;;;;;4905619;29;20052;-73
2021/03/03 02:24:46;;;;;;;32.13;16.52;;;4.50;10.70;;;;;;4903126;29;20052;-73
2021/03/03 02:27:15;;;;;;;40.35;17.77;;;4.60;10.40;;;;;;4896645;29;20052;-73
2021/03/03 02:29:42;;;;;;;33.58;17.73;;;4.60;9.90;;;;;;4902949;29;20526;-72
2021/03/03 02:32:09;;;;;;;33.10;16.88;;;4.60;9.30;;;;;;4902328;29;20602;-73
2021/03/03 02:34:39;;;;;;;34.53;17.30;;;4.60;9.50;;;;;;4907215;29;20147;-72
2021/03/03 02:37:07;;;;;;;29.67;17.38;;;4.50;9.40;;;;;;4899269;29;20451;-72
2021/03/03 02:39:34;;;;;;;33.30;18.08;;;4.50;9.00;;;;;;4899490;29;20044;-73
2021/03/03 02:42:02;;;;;;;29.58;16.90;;;4.50;9.40;;;;;;4904145;29;20052;-73
2021/03/03 02:44:32;;;;;;;30.17;16.08;;;4.60;8.70;;;;;;4899426;29;20056;-72
2021/03/03 02:46:59;;;;;;;29.33;16.10;;;4.60;8.70;;;;;;4899911;29;20056;-72
2021/03/03 02:49:27;;;;;;;33.13;16.80;;;4.50;8.70;;;;;;4902292;29;20044;-72
2021/03/03 02:51:54;;;;;;;39.20;18.95;;;4.40;9.30;;;;;;4903612;29;20063;-73
2021/03/03 02:54:21;;;;;;;32.88;18.05;;;4.30;9.30;;;;;;4904009;29;20069;-72
2021/03/03 02:56:48;;;;;;;31.83;16.88;;;4.30;10.10;;;;;;4899679;29;20072;-72
2021/03/03 02:59:25;;;;;;;32.80;17.10;;;4.40;9.50;;;;;;4898971;29;20052;-71
2021/03/03 03:02:02;;;;;;;36.53;18.90;;;4.40;9.60;;;;;;4904872;29;20056;-73
2021/03/03 03:04:36;;;;;;;32.03;18.30;;;4.30;9.70;;;;;;4900385;29;20048;-72
2021/03/03 03:07:08;;;;;;;34.97;18.48;;;4.40;9.80;;;;;;4897269;29;20047;-71
2021/03/03 03:09:37;;;;;;;33.05;17.98;;;4.40;9.50;;;;;;4896371;29;20055;-71
2021/03/03 03:15:52;;;;;;;34.95;17.50;;;4.40;8.60;;;;;;4896335;29;20119;-71
2021/03/03 03:18:25;;;;;;;31.55;18.20;;;4.30;8.50;;;;;;4893535;29;20068;-72
2021/03/03 03:20:53;;;;;;;29.52;17.95;;;4.30;8.80;;;;;;4904902;29;20044;-73
2021/03/03 03:23:22;;;;;;;32.33;17.15;;;4.30;9.60;;;;;;4900370;29;20052;-72
2021/03/03 03:25:52;;;;;;;37.35;18.23;;;4.30;9.30;;;;;;4903629;29;20499;-73
2021/03/03 03:28:20;;;;;;;30.85;16.55;;;4.20;9.50;;;;;;4892876;29;20044;-72
2021/03/03 03:30:48;;;;;;;28.60;16.27;;;4.10;9.60;;;;;;4902159;29;20053;-71
2021/03/03 03:33:16;;;;;;;35.53;16.83;;;4.00;10.30;;;;;;4901375;29;20206;-73
2021/03/03 03:35:44;;;;;;;30.20;16.23;;;4.20;10.50;;;;;;4901568;29;20503;-72
2021/03/03 03:38:11;;;;;;;29.40;16.75;;;4.10;10.20;;;;;;4898221;29;20060;-73
2021/03/03 03:40:38;;;;;;;30.70;16.38;;;4.10;10.10;;;;;;4899747;29;20981;-72
2021/03/03 03:43:08;;;;;;;34.67;17.38;;;4.10;10.60;;;;;;4898260;29;20045;-72
2021/03/03 03:45:35;;;;;;;34.85;17.05;;;4.20;10.40;;;;;;4898377;29;20415;-71
2021/03/03 03:48:03;;;;;;;30.92;16.67;;;4.10;10.30;;;;;;4893073;29;20053;-72
2021/03/03 03:50:31;;;;;;;38.50;17.75;;;4.10;10.70;;;;;;4902327;29;20045;-72
2021/03/03 03:52:59;;;;;;;34.72;18.05;;;4.10;10.70;;;;;;4899237;29;20052;-72
2021/03/03 03:55:31;;;;;;;31.85;17.83;;;4.20;10.80;;;;;;4906724;29;20055;-71
2021/03/03 03:57:59;;;;;;;35.17;17.42;;;4.20;10.20;;;;;;4893014;29;20056;-71
2021/03/03 04:00:27;;;;;;;28.83;16.75;;;4.20;10.10;;;;;;4900965;29;20055;-71
2021/03/03 04:02:54;;;;;;;36.50;17.23;;;4.20;10.50;;;;;;4900180;29;20044;-72
2021/03/03 04:05:22;;;;;;;34.90;17.13;;;4.20;10.50;;;;;;4900035;29;20053;-71
2021/03/03 04:07:49;;;;;;;34.63;17.58;;;4.20;10.30;;;;;;4894990;29;20467;-71
2021/03/03 04:10:21;;;;;;;30.08;16.15;;;4.20;10.40;;;;;;4902244;29;20060;-72
2021/03/03 04:12:48;;;;;;;33.78;16.75;;;4.20;9.70;;;;;;4898375;29;20056;-72
2021/03/03 04:15:16;;;;;;;33.55;16.33;;;4.20;9.50;;;;;;4901804;29;20058;-71
2021/03/03 04:17:43;;;;;;;29.65;16.88;;;4.20;9.70;;;;;;4897269;29;20136;-70
2021/03/03 04:20:14;;;;;;;29.15;16.00;;;4.10;9.90;;;;;;4904282;29;20634;-72
2021/03/03 04:22:41;;;;;;;31.25;16.85;;;4.10;10.00;;;;;;4898621;29;20053;-71
2021/03/03 04:25:10;;;;;;;28.90;16.77;;;4.00;10.30;;;;;;4900575;29;20052;-72
2021/03/03 04:27:39;;;;;;;30.85;17.15;;;3.90;10.70;;;;;;4896560;29;20052;-71
2021/03/03 04:30:08;;;;;;;31.40;17.05;;;4.00;10.90;;;;;;4901115;29;20054;-70
2021/03/03 04:32:35;;;;;;;31.65;17.38;;;3.90;11.50;;;;;;4899012;29;20522;-72
2021/03/03 04:35:03;;;;;;;38.80;17.70;;;3.90;12.10;;;;;;4901494;29;20055;-71
2021/03/03 04:37:30;;;;;;;27.38;16.10;;;4.00;11.30;;;;;;4898379;29;20438;-71
2021/03/03 04:39:57;;;;;;;32.80;16.08;;;4.00;11.00;;;;;;4901227;29;20579;-71
2021/03/03 04:42:24;;;;;;;30.92;17.40;;;3.90;10.90;;;;;;4903754;29;20060;-71
2021/03/03 04:44:52;;;;;;;32.05;16.73;;;3.90;11.20;;;;;;4901391;29;20052;-71
2021/03/03 04:47:19;;;;;;;32.22;16.63;;;3.80;11.50;;;;;;4900777;29;20049;-72
2021/03/03 04:49:46;;;;;;;31.38;17.15;;;3.90;11.30;;;;;;4897027;29;20155;-71
2021/03/03 04:52:13;;;;;;;30.92;16.77;;;3.80;11.30;;;;;;4901324;29;20056;-71
2021/03/03 04:54:39;;;;;;;31.33;17.50;;;3.80;11.40;;;;;;4897130;29;20059;-72
2021/03/03 04:57:06;;;;;;;27.90;15.93;;;3.80;11.50;;;;;;4898021;29;20048;-72
2021/03/03 04:59:34;;;;;;;28.92;16.17;;;3.80;11.70;;;;;;4895696;29;20063;-71
2021/03/03 05:02:01;;;;;;;34.90;16.42;;;3.80;11.80;;;;;;4901252;29;20634;-71
2021/03/03 05:04:28;;;;;;;33.80;17.40;;;3.80;12.10;;;;;;4899923;29;20049;-71
2021/03/03 05:06:55;;;;;;;34.95;17.77;;;3.90;11.30;;;;;;4898541;29;20057;-71
2021/03/03 05:09:22;;;;;;;29.70;15.98;;;3.90;11.10;;;;;;4897925;29;20048;-72
2021/03/03 05:11:49;;;;;;;29.02;17.13;;;3.90;11.30;;;;;;4898896;29;20059;-72
2021/03/03 05:14:16;;;;;;;36.30;16.67;;;4.00;10.60;;;;;;4902863;29;20431;-72
2021/03/03 05:16:44;;;;;;;29.58;15.75;;;4.00;10.00;;;;;;4891573;29;20049;-72
2021/03/03 05:19:11;;;;;;;34.65;16.48;;;3.90;10.40;;;;;;4893013;29;20522;-72
2021/03/03 05:21:39;;;;;;;37.70;16.58;;;3.90;10.70;;;;;;4904719;29;20059;-72
2021/03/03 05:24:06;;;;;;;32.05;17.35;;;3.90;10.70;;;;;;4905244;29;20064;-71
2021/03/03 05:26:33;;;;;;;30.15;16.52;;;3.90;10.80;;;;;;4904292;29;20052;-72
2021/03/03 05:29:00;;;;;;;29.00;16.50;;;3.90;11.00;;;;;;4898662;29;20051;-72
2021/03/03 05:31:27;;;;;;;30.45;17.10;;;3.90;10.90;;;;;;4903416;29;20056;-71
2021/03/03 05:34:00;;;;;;;31.80;17.13;;;3.80;11.20;;;;;;4903665;29;20072;-72
2021/03/03 05:36:28;;;;;;;31.60;17.60;;;3.80;11.40;;;;;;4903872;29;20059;-72
2021/03/03 05:38:55;;;;;;;34.20;16.60;;;3.90;11.30;;;;;;4893566;29;20063;-71
2021/03/03 05:41:23;;;;;;;31.77;17.33;;;3.90;10.80;;;;;;4901335;29;20051;-71
2021/03/03 05:43:50;;;;;;;31.70;18.58;;;3.90;11.10;;;;;;4904743;29;20060;-72
2021/03/03 05:46:18;;;;;;;30.30;17.40;;;3.80;11.10;;;;;;4905263;29;20515;-72
2021/03/03 05:48:50;;;;;;;39.50;18.30;;;3.80;11.30;;;;;;4896191;29;20053;-73
2021/03/03 05:51:17;;;;;;;33.03;17.50;;;3.80;11.10;;;;;;4900032;29;20408;-70
2021/03/03 05:53:45;;;;;;;31.30;17.42;;;3.90;10.90;;;;;;4903946;29;20066;-72
2021/03/03 05:56:12;;;;;;;36.13;17.70;;;4.00;10.30;;;;;;4906844;29;20651;-72
2021/03/03 05:58:40;;;;;;;33.03;17.38;;;4.00;10.10;;;;;;4898760;29;20048;-72
2021/03/03 06:01:09;;;;;;;35.63;17.48;;;4.00;10.10;;;;;;4907717;29;20048;-72
2021/03/03 06:03:38;;;;;;;26.20;16.13;;;3.90;10.40;;;;;;4904393;29;20053;-72
2021/03/03 06:06:06;;;;;;;37.63;17.73;;;3.90;10.60;;;;;;4904434;29;20135;-72
2021/03/03 06:08:33;;;;;;;30.50;17.75;;;3.90;10.50;;;;;;4896921;29;20067;-72
2021/03/03 06:11:03;;;;;;;32.47;17.30;;;3.90;10.60;;;;;;4904141;29;20056;-72
2021/03/03 06:13:30;;;;;;;31.42;16.83;;;3.80;10.90;;;;;;4902584;29;20067;-72
2021/03/03 06:15:57;;;;;;;36.88;17.60;;;3.90;10.90;;;;;;4901311;29;20054;-72
2021/03/03 06:18:25;;;;;;;48.30;21.98;;;3.80;11.10;;;;;;4895836;29;20056;-72
2021/03/03 06:20:55;;;;;;;64.35;26.60;;;3.80;11.30;;;;;;4904065;29;20048;-71
2021/03/03 06:23:23;;;;;;;45.28;22.58;;;4.00;11.30;;;;;;4906246;29;20141;-71
2021/03/03 06:26:08;;;;;;;39.33;20.27;;;4.00;10.70;;;;;;4907842;29;20143;-71
2021/03/03 06:28:37;;;;;;;;;;;4.10;10.00;;;;;;4895551;29;20061;-73
2021/03/03 06:31:29;;;;;;;35.53;19.13;;;4.10;10.20;;;;;;4898905;29;19927;-73
2021/03/03 06:34:13;;;;;;;36.08;18.50;;;4.20;9.70;;;;;;4904791;29;20052;-72
2021/03/03 06:36:42;;;;;;;36.72;19.65;;;4.30;9.00;;;;;;4903098;29;20053;-73
2021/03/03 06:39:20;;;;;;;33.83;17.13;;;4.30;8.60;;;;;;4896940;29;20495;-72
2021/03/03 06:41:47;;;;;;;35.58;17.52;;;4.40;8.60;;;;;;4903873;29;20051;-68
2021/03/03 06:44:16;;;;;;;39.20;18.05;;;4.50;8.20;;;;;;4899270;29;20055;-69
2021/03/03 06:46:43;;;;;;;34.75;18.35;;;4.40;8.00;;;;;;4901408;29;20151;-73
2021/03/03 06:49:24;;;;;;;32.40;18.23;;;4.60;7.40;;;;;;4893782;29;20118;-71
2021/03/03 06:51:51;;;;;;;37.83;18.33;;;4.60;7.00;;;;;;4900671;29;20045;-73
2021/03/03 06:54:20;;;;;;;33.28;17.65;;;4.60;6.80;;;;;;4905354;29;20052;-72
2021/03/03 06:56:48;;;;;;;33.33;17.45;;;4.60;6.50;;;;;;4897775;29;20051;-71
2021/03/03 06:59:18;;;;;;;36.17;18.73;;;4.70;6.10;;;;;;4897842;29;20055;-71
2021/03/03 07:01:47;;;;;;;31.75;17.10;;;4.70;5.80;;;;;;4904905;29;20403;-71
2021/03/03 07:04:19;;;;;;;30.27;17.60;;;4.70;5.90;;;;;;4906681;29;20047;-75
2021/03/03 07:06:47;;;;;;;37.40;17.15;;;4.70;5.60;;;;;;4905516;29;20052;-75
2021/03/03 07:09:14;;;;;;;34.60;18.35;;;4.80;5.70;;;;;;4898364;29;20499;-73
2021/03/03 07:11:42;;;;;;;33.90;18.45;;;4.80;5.80;;;;;;4902919;29;20048;-74
2021/03/03 07:14:14;;;;;;;33.05;18.30;;;4.80;5.60;;;;;;4902237;29;20448;-74
2021/03/03 07:17:01;;;;;;;36.97;19.27;;;4.90;5.30;;;;;;4909048;29;20056;-74
2021/03/03 07:19:28;;;;;;;36.20;18.17;;;4.90;5.30;;;;;;4897731;29;20135;-73
2021/03/03 07:21:56;;;;;;;36.67;18.33;;;4.90;5.20;;;;;;4901505;29;20044;-75
2021/03/03 07:24:24;;;;;;;33.83;19.00;;;5.00;5.10;;;;;;4900608;29;20576;-75
2021/03/03 07:26:51;;;;;;;31.17;17.85;;;5.00;5.10;;;;;;4894778;29;20527;-73
2021/03/03 07:29:18;;;;;;;37.50;18.33;;;5.10;5.80;;;;;;4894334;29;20512;-76
2021/03/03 07:31:45;;;;;;;37.47;17.55;;;5.10;4.50;;;;;;4903354;29;20067;-73
2021/03/03 07:34:13;;;;;;;34.53;18.08;;;5.20;4.40;;;;;;4899002;29;20048;-75
2021/03/03 07:36:41;;;;;;;36.25;19.15;;;5.30;4.10;;;;;;4898949;29;20048;-72
2021/03/03 07:39:09;;;;;;;37.58;17.25;;;5.30;4.30;;;;;;4897262;29;20056;-74
2021/03/03 07:41:43;;;;;;;35.17;17.17;;;5.30;3.50;;;;;;4899665;29;20052;-76
2021/03/03 07:44:11;;;;;;;42.17;17.65;;;5.40;3.30;;;;;;4903026;29;20468;-75
2021/03/03 07:46:40;;;;;;;28.63;16.15;;;5.50;3.30;;;;;;4901196;29;20053;-73
2021/03/03 07:49:09;;;;;;;32.08;17.10;;;5.60;3.10;;;;;;4896789;29;20674;-74
2021/03/03 07:51:41;;;;;;;36.97;18.58;;;5.70;2.70;;;;;;4882226;29;20045;-75
2021/03/03 07:54:11;;;;;;;31.67;16.48;;;5.70;2.00;;;;;;4903169;29;20084;-76
2021/03/03 07:56:39;;;;;;;30.88;16.25;;;5.80;1.70;;;;;;4900640;29;20468;-74
2021/03/03 07:59:07;;;;;;;43.13;17.45;;;6.00;1.10;;;;;;4896631;29;20052;-76
2021/03/03 08:01:37;;;;;;;38.58;18.55;;;6.20;1.00;;;;;;4902170;29;20818;-77
2021/03/03 08:04:06;;;;;;;36.28;18.10;;;6.20;1.00;;;;;;4901087;29;20396;-76
2021/03/03 08:06:40;;;;;;;32.33;17.13;;;6.30;1.00;;;;;;4884590;29;20530;-76
2021/03/03 08:09:23;;;;;;;35.00;17.13;;;6.30;1.00;;;;;;4896159;29;20056;-75
2021/03/03 08:12:02;;;;;;;32.92;17.58;;;6.30;1.00;;;;;;4904669;29;20127;-76
2021/03/03 08:14:40;;;;;;;44.25;18.38;;;6.50;1.00;;;;;;4888884;29;20048;-77
2021/03/03 08:17:10;;;;;;;35.03;17.40;;;6.60;1.00;;;;;;4897813;29;20120;-73
2021/03/03 08:20:02;;;;;;;36.47;18.33;;;6.60;1.00;;;;;;4896309;29;20063;-73
2021/03/03 08:22:55;;;;;;;33.30;16.80;;;6.60;1.00;;;;;;4901189;29;20048;-73
2021/03/03 08:25:41;;;;;;;33.58;17.70;;;6.50;1.00;;;;;;4887472;29;20055;-73
2021/03/03 08:28:32;;;;;;;40.80;18.98;;;6.70;1.00;;;;;;4894643;29;20055;-73
2021/03/03 08:31:31;;;;;;;33.22;18.40;;;6.60;1.00;;;;;;4900413;29;20102;-74
2021/03/03 08:34:01;;;;;;;43.30;19.67;;;6.50;1.00;;;;;;4901664;29;20139;-73
2021/03/03 08:36:57;;;;;;;37.55;19.20;;;6.70;1.00;;;;;;4896576;29;20052;-73
2021/03/03 08:39:36;;;;;;;38.22;19.80;;;6.80;1.00;;;;;;4900055;29;20639;-73
2021/03/03 08:42:35;;;;;;;40.75;19.33;;;6.90;1.00;;;;;;4898786;29;20390;-74
2021/03/03 08:45:11;;;;;;;36.80;19.40;;;7.00;1.00;;;;;;4901499;29;20048;-74
2021/03/03 08:47:53;;;;;;;37.65;18.25;;;7.20;1.00;;;;;;4895869;29;20060;-73
2021/03/03 08:50:31;;;;;;;41.33;18.83;;;7.30;1.00;;;;;;4896957;29;20045;-73
2021/03/03 08:53:24;;;;;;;40.42;23.77;;;7.40;1.00;;;;;;4903726;29;20078;-74
2021/03/03 08:55:52;;;;;;;32.97;18.50;;;7.50;1.00;;;;;;4904806;29;20053;-74
2021/03/03 08:59:00;;;;;;;56.33;20.05;;;7.70;1.00;;;;;;4898149;29;20056;-73
2021/03/03 09:02:01;;;;;;;34.13;17.83;;;7.70;1.00;;;;;;4905878;29;20575;-73
2021/03/03 09:04:30;;;;;;;37.05;19.30;;;7.80;1.00;;;;;;4903311;29;20463;-73
2021/03/03 09:06:58;;;;;;;31.92;18.15;;;7.90;1.00;;;;;;4899531;29;20053;-75
2021/03/03 09:09:26;;;;;;;32.65;18.33;;;7.70;1.00;;;;;;4902369;29;20534;-75
2021/03/03 09:12:02;;;;;;;37.17;18.63;;;7.90;1.00;;;;;;4906231;29;20052;-74
2021/03/03 09:14:30;;;;;;;34.88;20.05;;;7.90;1.00;;;;;;4899942;29;20056;-73
2021/03/03 09:16:59;;;;;;;37.78;18.63;;;7.90;1.00;;;;;;4901880;29;20426;-73
2021/03/03 09:19:27;;;;;;;29.33;18.08;;;8.00;1.00;;;;;;4904556;29;20056;-74
2021/03/03 09:21:55;;;;;;;38.60;19.08;;;8.10;1.00;;;;;;4900796;29;20412;-73
2021/03/03 09:24:22;;;;;;;31.00;18.58;;;8.10;1.00;;;;;;4901490;29;20442;-75
2021/03/03 09:26:49;;;;;;;42.42;18.38;;;8.10;1.00;;;;;;4897997;29;20075;-73
2021/03/03 09:29:28;;;;;;;41.88;19.95;;;8.20;1.00;;;;;;4900636;29;20053;-76
2021/03/03 09:31:55;;;;;;;36.45;17.92;;;8.30;1.00;;;;;;4905885;29;20044;-75
2021/03/03 09:34:23;;;;;;;29.73;18.48;;;8.30;1.00;;;;;;4903709;29;20052;-74
2021/03/03 09:36:58;;;;;;;28.70;18.70;;;8.20;1.00;;;;;;4895282;29;20888;-73
2021/03/03 09:39:25;;;;;;;38.83;19.77;;;8.30;1.00;;;;;;4899090;29;20403;-75
2021/03/03 09:41:57;;;;;;;40.35;19.27;;;8.60;1.00;;;;;;4907533;29;20052;-75
2021/03/03 09:44:25;;;;;;;31.27;18.38;;;8.70;1.00;;;;;;4906367;29;20056;-73
2021/03/03 09:47:00;;;;;;;33.05;18.00;;;8.80;1.00;;;;;;4897729;29;20056;-74
2021/03/03 09:49:29;;;;;;;32.75;18.83;;;8.90;1.00;;;;;;4903872;29;20128;-73
2021/03/03 09:51:57;;;;;;;32.00;18.63;;;8.80;1.00;;;;;;4902244;29;20498;-74
2021/03/03 09:54:32;;;;;;;35.80;19.05;;;8.90;1.00;;;;;;4901982;29;20051;-73
2021/03/03 09:57:07;;;;;;;35.00;18.73;;;8.90;1.00;;;;;;4898642;29;21380;-75
2021/03/03 09:59:36;;;;;;;34.85;18.15;;;9.00;1.00;;;;;;4904151;29;20056;-76
2021/03/03 10:02:05;;;;;;;28.23;17.75;;;9.20;1.00;;;;;;4905719;29;20053;-73
2021/03/03 10:04:32;;;;;;;35.35;18.20;;;9.10;1.00;;;;;;4897964;29;20143;-74
2021/03/03 10:07:15;;;;;;;35.75;18.75;;;9.30;1.00;;;;;;4892706;29;20136;-74
2021/03/03 10:09:45;;;;;;;33.45;17.52;;;9.40;1.00;;;;;;4900212;29;20053;-73
2021/03/03 10:12:14;;;;;;;25.92;17.17;;;9.50;1.00;;;;;;4906765;29;20041;-73
2021/03/03 10:15:09;;;;;;;34.35;18.25;;;9.50;1.00;;;;;;4903834;29;20689;-74
2021/03/03 10:17:39;;;;;;;36.35;18.42;;;9.60;1.00;;;;;;4867428;29;21383;-73
2021/03/03 10:20:11;;;;;;;28.15;16.75;;;9.70;1.00;;;;;;4905038;29;20044;-72
2021/03/03 10:22:43;;;;;;;33.67;17.55;;;9.60;1.00;;;;;;4904146;29;20175;-75
2021/03/03 10:25:13;;;;;;;32.25;16.38;;;9.90;1.00;;;;;;4904865;29;20044;-74
2021/03/03 10:27:42;;;;;;;28.38;16.88;;;10.00;1.00;;;;;;4899940;29;20679;-73
2021/03/03 10:30:26;;;;;;;51.25;27.75;;;10.10;1.00;;;;;;4903543;29;20053;-73
2021/03/03 10:32:54;;;;;;;39.22;17.65;;;10.30;1.00;;;;;;4903007;29;20040;-74
2021/03/03 10:35:23;;;;;;;26.13;16.55;;;10.50;1.00;;;;;;4907158;29;20518;-75
2021/03/03 10:37:50;;;;;;;25.70;15.38;;;10.30;1.00;;;;;;4894557;29;20059;-74
2021/03/03 10:40:18;;;;;;;27.60;16.65;;;10.50;1.00;;;;;;4905294;29;21288;-73
2021/03/03 10:42:46;;;;;;;27.52;17.75;;;10.80;1.00;;;;;;4908794;29;20391;-73
2021/03/03 10:45:22;;;;;;;41.28;17.80;;;10.80;1.00;;;;;;4901406;29;20119;-72
2021/03/03 10:47:50;;;;;;;31.05;15.93;;;11.00;1.00;;;;;;4895180;29;20423;-74
2021/03/03 10:50:35;;;;;;;31.10;17.55;;;11.10;1.00;;;;;;4901649;29;20164;-73
2021/03/03 10:53:05;;;;;;;35.83;16.75;;;10.90;1.00;;;;;;4903837;29;20048;-75
2021/03/03 10:55:35;;;;;;;36.47;18.15;;;11.00;1.00;;;;;;4901725;29;20121;-74
2021/03/03 10:58:07;;;;;;;30.67;17.77;;;11.30;1.00;;;;;;4897508;29;20064;-74
2021/03/03 11:00:54;;;;;;;35.00;18.13;;;11.10;1.00;;;;;;4898795;29;20135;-73
2021/03/03 11:03:22;;;;;;;35.65;19.88;;;11.10;1.00;;;;;;4901149;29;20049;-72
2021/03/03 11:05:52;;;;;;;36.92;20.77;;;11.20;1.00;;;;;;4900972;29;20496;-73
2021/03/03 11:08:20;;;;;;;29.02;17.40;;;11.20;1.00;;;;;;4892962;29;20056;-73
2021/03/03 11:10:48;;;;;;;30.05;16.35;;;11.50;1.00;;;;;;4901183;29;20094;-74
2021/03/03 11:13:18;;;;;;;29.33;16.70;;;11.50;1.00;;;;;;4902448;29;20479;-75
2021/03/03 11:15:45;;;;;;;24.92;16.02;;;11.70;1.00;;;;;;4897900;29;20072;-72
2021/03/03 11:18:19;;;;;;;38.08;17.17;;;11.80;1.00;;;;;;4894107;29;20155;-73
2021/03/03 11:20:47;;;;;;;29.20;15.48;;;11.80;1.00;;;;;;4900021;29;20088;-72
2021/03/03 11:23:16;;;;;;;30.80;17.52;;;11.80;1.00;;;;;;4905217;29;20660;-72
2021/03/03 11:25:43;;;;;;;29.80;16.67;;;11.90;1.00;;;;;;4902380;29;20060;-73
2021/03/03 11:28:11;;;;;;;32.45;16.67;;;11.80;1.00;;;;;;4895824;29;20800;-73
2021/03/03 11:30:39;;;;;;;35.85;18.50;;;11.80;1.00;;;;;;4898597;29;20044;-74
2021/03/03 11:33:07;;;;;;;40.38;17.98;;;11.90;1.00;;;;;;4897578;29;20064;-74
2021/03/03 11:35:34;;;;;;;29.80;16.85;;;12.20;1.00;;;;;;4901296;29;20044;-75
2021/03/03 11:38:04;;;;;;;27.25;17.13;;;12.50;1.00;;;;;;4893048;29;20132;-74
2021/03/03 11:40:33;;;;;;;31.40;18.05;;;12.10;1.00;;;;;;4901159;29;20075;-75
2021/03/03 11:43:01;;;;;;;24.48;15.93;;;12.10;1.00;;;;;;4904581;29;20126;-73
2021/03/03 11:45:28;;;;;;;29.60;16.40;;;12.20;1.00;;;;;;4898575;29;20053;-73
2021/03/03 11:47:57;;;;;;;31.52;16.20;;;12.10;1.00;;;;;;4894410;29;20049;-73
2021/03/03 11:50:25;;;;;;;27.48;15.80;;;12.20;1.00;;;;;;4902637;29;20082;-73
2021/03/03 11:52:52;;;;;;;30.42;16.08;;;12.20;1.00;;;;;;4899337;29;20055;-73
2021/03/03 11:55:19;;;;;;;24.27;15.02;;;12.30;1.00;;;;;;4901793;29;20146;-75
2021/03/03 11:57:47;;;;;;;32.20;17.35;;;12.50;1.00;;;;;;4896151;29;20052;-75
2021/03/03 12:00:16;;;;;;;28.95;16.13;;;12.60;1.00;;;;;;4901983;29;20062;-75
2021/03/03 12:02:43;;;;;;;25.85;16.02;;;12.70;1.00;;;;;;4907637;29;20107;-72
2021/03/03 12:05:12;;;;;;;33.67;18.75;;;12.70;1.00;;;;;;4900957;29;20060;-74
2021/03/03 12:07:39;;;;;;;31.55;16.38;;;13.00;1.00;;;;;;4900421;29;20411;-76
2021/03/03 12:10:08;;;;;;;31.20;16.00;;;12.90;1.00;;;;;;4900156;29;20071;-74
2021/03/03 12:12:35;;;;;;;30.35;16.67;;;12.70;1.00;;;;;;4901901;29;20135;-73
2021/03/03 12:15:04;;;;;;;27.13;15.88;;;12.70;1.00;;;;;;4904520;29;20055;-73
2021/03/03 12:17:31;;;;;;;36.00;17.38;;;13.00;1.00;;;;;;4896637;29;20056;-74
2021/03/03 12:20:00;;;;;;;31.85;16.33;;;12.80;1.00;;;;;;4902974;29;20052;-74
2021/03/03 12:22:27;;;;;;;29.70;15.52;;;12.80;1.00;;;;;;4900058;29;20044;-73
2021/03/03 12:24:54;;;;;;;28.20;15.48;;;12.90;1.00;;;;;;4908246;29;20048;-73
2021/03/03 12:27:21;;;;;;;37.65;16.23;;;13.00;1.00;;;;;;4899543;29;20147;-74
2021/03/03 12:29:49;;;;;;;31.85;16.30;;;13.00;1.00;;;;;;4906476;29;20053;-72
2021/03/03 12:32:17;;;;;;;31.83;15.07;;;13.20;1.00;;;;;;4907121;29;20044;-74
2021/03/03 12:34:45;;;;;;;26.48;16.20;;;13.00;1.00;;;;;;4904030;29;21066;-74
2021/03/03 12:37:12;;;;;;;34.15;16.13;;;13.20;1.00;;;;;;4910966;29;20079;-74
2021/03/03 12:39:39;;;;;;;23.30;14.70;;;13.10;1.00;;;;;;4910318;29;20060;-74
2021/03/03 12:42:07;;;;;;;28.38;15.00;;;13.10;1.00;;;;;;4905529;29;20509;-75
2021/03/03 12:44:34;;;;;;;33.55;16.27;;;13.10;1.00;;;;;;4906432;29;20609;-77
2021/03/03 12:47:01;;;;;;;31.50;15.40;;;13.10;1.00;;;;;;4905756;29;20052;-74
2021/03/03 12:49:29;;;;;;;30.17;16.20;;;13.30;1.00;;;;;;4902757;29;20566;-74
2021/03/03 12:51:57;;;;;;;26.33;15.70;;;13.30;1.00;;;;;;4903325;29;20123;-74
2021/03/03 12:54:25;;;;;;;32.33;15.98;;;13.50;1.00;;;;;;4908993;29;20554;-73
2021/03/03 12:56:52;;;;;;;27.30;16.33;;;13.50;1.00;;;;;;4898815;29;20074;-75
2021/03/03 12:59:19;;;;;;;25.77;15.70;;;13.40;1.00;;;;;;4899908;29;20052;-75